Hlavní strana
METAR-TAF:

METAR-TAF

Letiště :

Conakry, Guinea

zeměpisná šířka: 09-34N, zeměpisná délka: 013-37W, výška: 26 m

Aktuální stav počasí

Zpráva byla vytvořena před 40 minutami, v 23:00 UTC
Bezvětří
Teplota 27°C
Vlhkost vzduchu 79%
Tlak 1012 hPa
Viditelnost 10 km a více
Skoro jasno ve výšce 1500 ft

METAR: GUCY 222300Z 00000KT 9999 FEW015 27/23 Q1012 NOSIG

Čas: 23:40 (23:40 UTC)

Předpověď počasí

Zpráva byla vytvořena před 40 minutami, v 23:00 UTC
Předpověď platná od 23 v 00 UTC do 24 v 06 UTC
Západní vítr 8 kt
Viditelnost 10 km a více
Skoro jasno ve výšce 2000 ft
Polojasno ve výšce 12000 ft
Změna
od 23 v 00 UTC do 23 v 04 UTC
vítr z různých směrů 2 kt
Dočasný
od 23 v 04 UTC do 23 v 07 UTC
Severoseverozápadní vítr 6 kt
Viditelnost: 3000 m
Oblačno až skoro zataženo ve výšce 12000 ft
kouřmo

TAF: GUCY 222300Z 2300/2406 26008KT 9999 FEW020 SCT120 BECMG 2300/2304 VRB02KT TEMPO 2304/2307 34006KT 3000 BR BKN120

Stav a předpovědi počasí z více než 4 000 letišť (zprávy METAR a TAF).

Červené a žluté tečky na mapě představují dostupné meteorologické stanice.

Když kurzor umístíte na tečku, zobrazí se název stanice.

Pak kliknutím zobrazíte stav a předpověď počasí.

Chcete-li změnit mapu, kliknutím na zelené tlačítko se znaménkem +mapu přiblížíte, kliknutím na zelené tlačítko se znaménkem – mapu oddálíte a kliknutím na zelené šipky přejdete na sousední mapy.


METAR-TAF: